createdAt,value
2018-08-13T00:02:15.910Z,23.90
2018-08-13T00:04:44.260Z,23.90
2018-08-13T00:07:12.571Z,23.80
2018-08-13T00:09:41.937Z,23.80
2018-08-13T00:12:11.221Z,23.80
2018-08-13T00:14:39.640Z,23.70
2018-08-13T00:17:08.086Z,23.70
2018-08-13T00:19:36.522Z,23.70
2018-08-13T00:22:05.076Z,23.60
2018-08-13T00:24:33.461Z,23.60
2018-08-13T00:27:01.873Z,23.60
2018-08-13T00:29:30.459Z,23.60
2018-08-13T00:31:58.835Z,23.60
2018-08-13T00:34:27.193Z,23.60
2018-08-13T00:36:55.555Z,23.60
2018-08-13T00:39:23.925Z,23.60
2018-08-13T00:41:52.250Z,23.60
2018-08-13T00:44:20.577Z,23.60
2018-08-13T00:46:48.947Z,23.50
2018-08-13T00:49:17.359Z,23.60
2018-08-13T00:51:45.679Z,23.70
2018-08-13T00:54:14.008Z,23.80
2018-08-13T00:56:42.465Z,23.80
2018-08-13T00:59:10.735Z,23.80
2018-08-13T01:01:39.060Z,23.80
2018-08-13T01:04:07.411Z,23.80
2018-08-13T01:06:35.741Z,23.80
2018-08-13T01:09:06.396Z,23.80
2018-08-13T01:11:34.696Z,23.80
2018-08-13T01:14:03.270Z,23.80
2018-08-13T01:16:31.627Z,23.80
2018-08-13T01:19:00.034Z,23.80
2018-08-13T01:21:28.596Z,23.80
2018-08-13T01:23:56.940Z,23.80
2018-08-13T01:26:25.260Z,23.80
2018-08-13T01:28:53.766Z,23.80
2018-08-13T01:31:22.075Z,23.80
2018-08-13T01:33:50.396Z,23.80
2018-08-13T01:36:18.703Z,23.80
2018-08-13T01:38:47.011Z,23.80
2018-08-13T01:41:15.281Z,23.80
2018-08-13T01:43:43.598Z,23.80
2018-08-13T01:46:11.914Z,23.80
2018-08-13T01:48:40.213Z,23.80
2018-08-13T01:51:08.500Z,23.80
2018-08-13T01:53:36.787Z,23.90
2018-08-13T01:56:05.130Z,23.80
2018-08-13T01:58:33.404Z,23.90
2018-08-13T02:01:01.730Z,23.90
2018-08-13T02:03:30.022Z,23.90
2018-08-13T02:05:58.322Z,23.80
2018-08-13T02:08:26.629Z,23.90
2018-08-13T02:10:54.918Z,23.80
2018-08-13T02:13:23.202Z,23.90
2018-08-13T02:15:51.482Z,23.90
2018-08-13T02:18:19.758Z,23.80
2018-08-13T02:20:48.057Z,23.90
2018-08-13T02:23:16.347Z,23.90
2018-08-13T02:25:44.625Z,23.90
2018-08-13T02:28:12.916Z,23.90
2018-08-13T02:30:41.236Z,23.90
2018-08-13T02:33:09.523Z,23.90
2018-08-13T02:35:37.909Z,23.90
2018-08-13T02:38:06.194Z,23.90
2018-08-13T02:40:34.516Z,23.90
2018-08-13T02:43:02.859Z,23.90
2018-08-13T02:45:31.113Z,23.90
2018-08-13T02:47:59.389Z,23.90
2018-08-13T02:50:27.680Z,23.90
2018-08-13T02:52:55.956Z,23.90
2018-08-13T02:55:24.270Z,23.90
2018-08-13T02:57:52.543Z,23.90
2018-08-13T03:00:20.851Z,23.90
2018-08-13T03:02:49.170Z,23.90
2018-08-13T03:05:17.432Z,23.80
2018-08-13T03:07:45.716Z,23.90
2018-08-13T03:10:14.172Z,23.90
2018-08-13T03:12:42.975Z,23.90
2018-08-13T03:15:13.529Z,23.90
2018-08-13T03:17:41.875Z,23.90
2018-08-13T03:20:10.308Z,23.90
2018-08-13T03:22:38.607Z,23.90
2018-08-13T03:25:08.589Z,23.90
2018-08-13T03:27:36.847Z,23.80
2018-08-13T03:30:08.841Z,23.90
2018-08-13T03:32:37.254Z,23.90
2018-08-13T03:35:05.539Z,23.90
2018-08-13T03:37:33.844Z,23.90
2018-08-13T03:40:02.126Z,23.90
2018-08-13T03:42:30.446Z,23.90
2018-08-13T03:44:58.731Z,23.80
2018-08-13T03:47:27.216Z,23.80
2018-08-13T03:49:55.508Z,23.80
2018-08-13T03:52:23.856Z,23.80
2018-08-13T03:54:52.142Z,23.80
2018-08-13T03:57:20.435Z,23.90
2018-08-13T03:59:48.699Z,23.90
2018-08-13T04:02:17.021Z,23.90
2018-08-13T04:04:45.290Z,23.80
2018-08-13T04:07:13.580Z,23.90
2018-08-13T04:09:44.039Z,23.80
2018-08-13T04:12:13.248Z,23.80
2018-08-13T04:14:41.503Z,23.90
2018-08-13T04:17:09.828Z,23.80
2018-08-13T04:19:38.104Z,23.90
2018-08-13T04:22:06.490Z,23.80
2018-08-13T04:24:34.823Z,23.90
2018-08-13T04:27:03.090Z,23.90
2018-08-13T04:29:31.368Z,23.90
2018-08-13T04:31:59.682Z,23.80
2018-08-13T04:34:27.951Z,23.90
2018-08-13T04:36:56.214Z,23.80
2018-08-13T04:39:24.558Z,23.80
2018-08-13T04:41:52.793Z,23.90
2018-08-13T04:44:21.153Z,23.80
2018-08-13T04:46:49.410Z,23.90
2018-08-13T04:49:17.738Z,23.80
2018-08-13T04:51:46.037Z,23.80
2018-08-13T04:54:14.358Z,23.80
2018-08-13T04:56:42.623Z,23.90
2018-08-13T04:59:10.906Z,23.80
2018-08-13T05:01:39.179Z,23.80
2018-08-13T05:04:07.447Z,23.80
2018-08-13T05:06:35.727Z,23.80
2018-08-13T05:09:06.047Z,23.80
2018-08-13T05:11:34.411Z,23.80
2018-08-13T05:14:03.012Z,23.80
2018-08-13T05:16:31.315Z,23.80
2018-08-13T05:18:59.646Z,23.80
2018-08-13T05:21:28.077Z,23.80
2018-08-13T05:23:56.333Z,23.80
2018-08-13T05:26:24.626Z,23.90
2018-08-13T05:28:52.887Z,23.80
2018-08-13T05:31:21.375Z,23.80
2018-08-13T05:33:49.651Z,23.80
2018-08-13T05:36:18.020Z,23.80
2018-08-13T05:38:46.301Z,23.90
2018-08-13T05:41:14.583Z,23.80
2018-08-13T05:43:42.933Z,23.80
2018-08-13T05:46:11.219Z,23.80
2018-08-13T05:48:39.511Z,23.80
2018-08-13T05:51:07.801Z,23.80
2018-08-13T05:53:36.125Z,23.80
2018-08-13T05:56:04.418Z,23.80
2018-08-13T05:58:32.674Z,23.80
2018-08-13T06:01:01.009Z,23.80
2018-08-13T06:03:29.284Z,23.80
2018-08-13T06:05:57.570Z,23.80
2018-08-13T06:08:25.863Z,23.80
2018-08-13T06:10:54.142Z,23.80
2018-08-13T06:13:22.412Z,23.80
2018-08-13T06:15:50.703Z,23.80
2018-08-13T06:18:18.973Z,23.80
2018-08-13T06:20:47.243Z,23.80
2018-08-13T06:23:15.519Z,23.80
2018-08-13T06:25:43.801Z,23.80
2018-08-13T06:28:12.146Z,23.90
2018-08-13T06:30:40.349Z,23.80
2018-08-13T06:33:08.802Z,23.80
2018-08-13T06:35:37.098Z,23.80
2018-08-13T06:38:05.421Z,23.90
2018-08-13T06:40:33.689Z,23.80
2018-08-13T06:43:01.979Z,23.90
2018-08-13T06:45:30.268Z,23.90
2018-08-13T06:47:58.576Z,23.70
2018-08-13T06:50:26.859Z,23.70
2018-08-13T06:52:55.210Z,23.60
2018-08-13T06:55:23.521Z,23.60
2018-08-13T06:57:51.846Z,23.60
2018-08-13T07:00:20.174Z,23.50
2018-08-13T07:02:48.576Z,23.50
2018-08-13T07:05:16.928Z,23.50
2018-08-13T07:07:45.263Z,23.50
2018-08-13T07:10:14.916Z,23.60
2018-08-13T07:12:45.244Z,23.60
2018-08-13T07:15:14.308Z,23.60
2018-08-13T07:17:42.697Z,23.60
2018-08-13T07:20:12.929Z,23.60
2018-08-13T07:22:41.296Z,23.50
2018-08-13T07:25:09.993Z,23.60
2018-08-13T07:27:38.883Z,23.50
2018-08-13T07:30:09.614Z,23.50
2018-08-13T07:32:37.994Z,23.50
2018-08-13T07:35:06.859Z,23.50
2018-08-13T07:37:35.214Z,23.50
2018-08-13T07:40:04.647Z,23.60
2018-08-13T07:42:32.984Z,23.60
2018-08-13T07:45:01.307Z,23.50
2018-08-13T07:47:29.615Z,23.60
2018-08-13T07:49:58.097Z,23.50
2018-08-13T07:52:26.384Z,23.60
2018-08-13T07:54:54.700Z,23.50
2018-08-13T07:57:23.026Z,23.60
2018-08-13T07:59:51.360Z,23.50
2018-08-13T08:02:19.664Z,23.50
2018-08-13T08:04:48.097Z,23.50
2018-08-13T08:07:16.489Z,23.50
2018-08-13T08:09:44.824Z,23.50
2018-08-13T08:12:13.206Z,23.40
2018-08-13T08:14:41.698Z,23.40
2018-08-13T08:17:10.125Z,23.40
2018-08-13T08:19:38.530Z,23.50
2018-08-13T08:22:06.859Z,23.40
2018-08-13T08:24:35.237Z,23.40
2018-08-13T08:27:03.629Z,23.40
2018-08-13T08:29:31.967Z,23.40
2018-08-13T08:32:00.361Z,23.40
2018-08-13T08:34:28.765Z,23.50
2018-08-13T08:36:57.225Z,23.50
2018-08-13T08:39:25.627Z,23.50
2018-08-13T08:41:53.963Z,23.50
2018-08-13T08:44:22.279Z,23.50
2018-08-13T08:46:50.684Z,23.60
2018-08-13T08:49:19.017Z,23.50
2018-08-13T08:51:47.336Z,23.60
2018-08-13T08:54:15.723Z,23.60
2018-08-13T08:56:44.289Z,23.60
2018-08-13T08:59:12.673Z,23.60
2018-08-13T09:01:41.234Z,23.60
2018-08-13T09:04:09.940Z,23.60
2018-08-13T09:06:38.431Z,23.60
2018-08-13T09:09:10.096Z,23.60
2018-08-13T09:11:38.415Z,23.60
2018-08-13T09:14:07.381Z,23.60
2018-08-13T09:16:35.686Z,23.60
2018-08-13T09:19:15.266Z,23.50
2018-08-13T09:21:43.609Z,23.50
2018-08-13T09:24:23.499Z,23.40
2018-08-13T09:27:03.320Z,23.30
2018-08-13T09:29:43.061Z,23.30
2018-08-13T09:32:27.277Z,23.40
2018-08-13T09:35:31.640Z,23.40
2018-08-13T09:38:00.099Z,23.50
2018-08-13T09:40:29.619Z,23.50
2018-08-13T09:42:58.151Z,23.50
2018-08-13T09:45:26.589Z,23.50
2018-08-13T09:47:54.951Z,23.40
2018-08-13T09:50:23.552Z,23.40
2018-08-13T09:52:52.143Z,23.40
2018-08-13T09:55:20.923Z,23.40
2018-08-13T09:57:49.921Z,23.50
2018-08-13T10:00:24.886Z,23.50
2018-08-13T10:02:53.198Z,23.50
2018-08-13T10:05:21.506Z,23.50
2018-08-13T10:07:49.832Z,23.50
2018-08-13T10:10:18.442Z,23.50
2018-08-13T10:12:47.150Z,23.50
2018-08-13T10:15:15.613Z,23.50
2018-08-13T10:17:44.065Z,23.60
2018-08-13T10:20:16.142Z,23.70
2018-08-13T10:22:44.654Z,23.70
2018-08-13T10:25:16.456Z,23.80
2018-08-13T10:27:44.796Z,23.90
2018-08-13T10:30:14.261Z,24.00
2018-08-13T10:32:44.800Z,24.00
2018-08-13T10:35:13.176Z,24.00
2018-08-13T10:37:41.917Z,24.00
2018-08-13T10:40:15.301Z,23.90
2018-08-13T10:42:43.772Z,23.90
2018-08-13T10:45:12.041Z,23.80
2018-08-13T10:47:40.335Z,23.80
2018-08-13T10:50:10.207Z,23.80
2018-08-13T10:52:38.811Z,23.80
2018-08-13T10:55:07.675Z,23.90
2018-08-13T10:57:35.978Z,23.90
2018-08-13T11:00:06.231Z,23.90
2018-08-13T11:02:34.533Z,23.90
2018-08-13T11:05:02.850Z,23.80
2018-08-13T11:07:31.153Z,23.80
2018-08-13T11:09:59.478Z,23.90
2018-08-13T11:12:27.770Z,23.90
2018-08-13T11:14:56.070Z,23.90
2018-08-13T11:17:24.470Z,24.00
2018-08-13T11:19:52.799Z,24.00
2018-08-13T11:22:21.105Z,24.00
2018-08-13T11:24:49.413Z,24.00
2018-08-13T11:27:17.693Z,24.00
2018-08-13T11:29:46.538Z,24.00
2018-08-13T11:32:14.873Z,23.80
2018-08-13T11:34:43.264Z,23.70
2018-08-13T11:37:11.527Z,23.70
2018-08-13T11:39:39.892Z,23.70
2018-08-13T11:42:08.242Z,23.70
2018-08-13T11:44:36.649Z,23.70
2018-08-13T11:47:05.049Z,23.80
2018-08-13T11:49:33.457Z,23.70
2018-08-13T11:52:01.831Z,23.70
2018-08-13T11:54:30.135Z,23.70
2018-08-13T11:56:58.574Z,23.80
2018-08-13T11:59:26.866Z,23.70
2018-08-13T12:01:58.427Z,23.70
2018-08-13T12:04:26.796Z,23.80
2018-08-13T12:06:55.288Z,23.80
2018-08-13T12:09:23.841Z,23.80
2018-08-13T12:11:52.174Z,23.80
2018-08-13T12:14:20.453Z,23.80
2018-08-13T12:16:48.757Z,23.90
2018-08-13T12:19:17.078Z,23.90
2018-08-13T12:21:45.367Z,23.90
2018-08-13T12:24:13.672Z,23.90
2018-08-13T12:26:41.943Z,23.80
2018-08-13T12:29:10.253Z,23.80
2018-08-13T12:31:38.739Z,23.80
2018-08-13T12:34:07.120Z,23.80
2018-08-13T12:36:35.485Z,23.80
2018-08-13T12:39:06.188Z,23.80
2018-08-13T12:41:34.474Z,23.90
2018-08-13T12:44:02.839Z,23.90
2018-08-13T12:46:31.155Z,23.90
2018-08-13T12:48:59.462Z,24.00
2018-08-13T12:51:27.762Z,24.00
2018-08-13T12:53:56.062Z,24.10
2018-08-13T12:56:24.350Z,24.10
2018-08-13T12:58:52.673Z,24.20
2018-08-13T13:01:20.973Z,24.20
2018-08-13T13:03:49.393Z,24.20
2018-08-13T13:06:17.700Z,24.20
2018-08-13T13:08:45.978Z,24.30
2018-08-13T13:11:14.263Z,24.30
2018-08-13T13:13:42.527Z,24.20
2018-08-13T13:16:10.835Z,24.30
2018-08-13T13:18:39.322Z,24.30
2018-08-13T13:21:08.290Z,24.30
2018-08-13T13:23:36.592Z,24.20
2018-08-13T13:26:04.979Z,24.20
2018-08-13T13:28:33.180Z,24.10
2018-08-13T13:31:01.455Z,24.10
2018-08-13T13:33:29.738Z,24.00
2018-08-13T13:35:58.281Z,24.00
2018-08-13T13:38:28.858Z,24.00
2018-08-13T13:40:57.246Z,23.90
2018-08-13T13:43:25.862Z,23.90
2018-08-13T13:45:54.290Z,24.00
2018-08-13T13:48:22.567Z,24.00
2018-08-13T13:50:51.047Z,24.00
2018-08-13T13:53:19.358Z,24.00
2018-08-13T13:55:48.199Z,23.90
2018-08-13T13:58:16.568Z,24.00
2018-08-13T14:00:44.883Z,23.90
2018-08-13T14:03:13.472Z,23.80
2018-08-13T14:05:41.935Z,23.90
2018-08-13T14:08:10.278Z,23.80
2018-08-13T14:10:43.204Z,23.70
2018-08-13T14:13:14.691Z,23.80
2018-08-13T14:15:46.515Z,23.90
2018-08-13T14:18:15.008Z,23.90
2018-08-13T14:20:43.535Z,23.90
2018-08-13T14:23:11.815Z,23.90
2018-08-13T14:25:40.130Z,23.80
2018-08-13T14:28:08.514Z,23.80
2018-08-13T14:30:36.858Z,23.70
2018-08-13T14:33:05.228Z,23.70
2018-08-13T14:35:33.767Z,23.70
2018-08-13T14:38:02.168Z,23.70
2018-08-13T14:40:30.830Z,23.70
2018-08-13T14:42:59.153Z,23.70
2018-08-13T14:45:27.438Z,23.70
2018-08-13T14:47:55.862Z,23.70
2018-08-13T14:50:24.342Z,23.70
2018-08-13T14:52:52.795Z,23.70
2018-08-13T14:55:22.073Z,23.70
2018-08-13T14:57:50.456Z,23.70
2018-08-13T15:00:23.628Z,23.70
2018-08-13T15:02:53.001Z,23.70
2018-08-13T15:05:21.336Z,23.60
2018-08-13T15:07:50.092Z,23.60
2018-08-13T15:10:20.975Z,23.60
2018-08-13T15:12:49.375Z,23.60
2018-08-13T15:15:17.864Z,23.60
2018-08-13T15:17:46.442Z,23.60
2018-08-13T15:20:19.506Z,23.60
2018-08-13T15:22:47.815Z,23.60
2018-08-13T15:25:16.382Z,23.60
2018-08-13T15:27:44.856Z,23.60
2018-08-13T15:30:15.028Z,23.60
2018-08-13T15:32:44.542Z,23.60
2018-08-13T15:35:12.907Z,23.70
2018-08-13T15:37:41.650Z,23.70
2018-08-13T15:40:10.516Z,23.70
2018-08-13T15:42:38.992Z,23.80
2018-08-13T15:45:10.409Z,23.80
2018-08-13T15:47:39.568Z,23.80
2018-08-13T15:50:08.957Z,23.80
2018-08-13T15:52:37.250Z,23.80
2018-08-13T15:55:05.660Z,23.70
2018-08-13T15:57:33.979Z,23.70
2018-08-13T16:00:02.570Z,23.70
2018-08-13T16:02:31.019Z,23.80
2018-08-13T16:04:59.636Z,23.80
2018-08-13T16:07:28.137Z,23.80
2018-08-13T16:09:56.409Z,23.80
2018-08-13T16:12:25.407Z,23.90
2018-08-13T16:14:53.712Z,23.90
2018-08-13T16:17:22.033Z,23.90
2018-08-13T16:19:50.381Z,23.80
2018-08-13T16:22:18.734Z,23.80
2018-08-13T16:24:47.450Z,23.90
2018-08-13T16:27:16.483Z,23.90
2018-08-13T16:29:44.814Z,23.80
2018-08-13T16:32:13.134Z,23.80
2018-08-13T16:34:41.499Z,23.80
2018-08-13T16:37:10.038Z,23.90
2018-08-13T16:39:39.038Z,23.80
2018-08-13T16:42:07.739Z,23.90
2018-08-13T16:44:36.771Z,23.80
2018-08-13T16:47:05.106Z,23.80
2018-08-13T16:49:34.910Z,23.80
2018-08-13T16:52:03.702Z,23.70
2018-08-13T16:54:32.055Z,23.70
2018-08-13T16:57:00.686Z,23.70
2018-08-13T16:59:29.015Z,23.70
2018-08-13T17:01:57.596Z,23.60
2018-08-13T17:04:26.318Z,23.60
2018-08-13T17:06:54.652Z,23.70
2018-08-13T17:09:23.036Z,23.70
2018-08-13T17:11:51.849Z,23.70
2018-08-13T17:14:20.915Z,23.60
2018-08-13T17:16:49.658Z,23.60
2018-08-13T17:19:18.232Z,23.60
2018-08-13T17:21:46.635Z,23.60
2018-08-13T17:24:15.513Z,23.50
2018-08-13T17:26:43.991Z,23.40
2018-08-13T17:29:12.347Z,23.40
2018-08-13T17:31:41.039Z,23.40
2018-08-13T17:34:10.271Z,23.40
2018-08-13T17:36:39.638Z,23.40
2018-08-13T17:39:12.349Z,23.40
2018-08-13T17:41:41.298Z,23.40
2018-08-13T17:44:09.914Z,23.40
2018-08-13T17:46:38.693Z,23.50
2018-08-13T17:49:07.807Z,23.50
2018-08-13T17:51:37.327Z,23.50
2018-08-13T17:54:06.629Z,23.50
2018-08-13T17:56:35.425Z,23.50
2018-08-13T17:59:03.749Z,23.50
2018-08-13T18:01:32.053Z,23.50
2018-08-13T18:04:00.725Z,23.50
2018-08-13T18:06:29.064Z,23.50
2018-08-13T18:08:58.128Z,23.40
2018-08-13T18:11:26.713Z,23.40
2018-08-13T18:13:55.312Z,23.40
2018-08-13T18:16:23.969Z,23.40
2018-08-13T18:18:52.690Z,23.30
2018-08-13T18:21:21.449Z,23.40
2018-08-13T18:23:50.004Z,23.40
2018-08-13T18:26:18.323Z,23.40
2018-08-13T18:28:46.670Z,23.40
2018-08-13T18:31:15.122Z,23.40
2018-08-13T18:33:43.439Z,23.40
2018-08-13T18:36:12.860Z,23.40
2018-08-13T18:38:41.709Z,23.40
2018-08-13T18:41:10.410Z,23.40
2018-08-13T18:43:39.010Z,23.40
2018-08-13T18:46:08.000Z,23.40
2018-08-13T18:48:37.910Z,23.40
2018-08-13T18:51:06.640Z,23.40
2018-08-13T18:53:35.447Z,23.40
2018-08-13T18:56:04.179Z,23.40
2018-08-13T18:58:32.730Z,23.40
2018-08-13T19:01:01.314Z,23.40
2018-08-13T19:03:30.186Z,23.40
2018-08-13T19:05:58.577Z,23.40
2018-08-13T19:08:26.895Z,23.40
2018-08-13T19:10:55.295Z,23.40
2018-08-13T19:13:23.952Z,23.40
2018-08-13T19:15:53.737Z,23.40
2018-08-13T19:18:22.669Z,23.40
2018-08-13T19:20:51.162Z,23.40
2018-08-13T19:23:19.552Z,23.40
2018-08-13T19:25:48.616Z,23.40
2018-08-13T19:28:16.945Z,23.40
2018-08-13T19:30:45.422Z,23.40
2018-08-13T19:33:15.654Z,23.40
2018-08-13T19:35:44.599Z,23.40
2018-08-13T19:38:12.987Z,23.40
2018-08-13T19:40:42.666Z,23.30
2018-08-13T19:43:11.247Z,23.40
2018-08-13T19:45:39.658Z,23.30
2018-08-13T19:48:08.251Z,23.30
2018-08-13T19:50:36.795Z,23.40
2018-08-13T19:53:05.476Z,23.40
2018-08-13T19:55:33.914Z,23.40
2018-08-13T19:58:02.477Z,23.40
2018-08-13T20:00:31.020Z,23.40
2018-08-13T20:02:59.556Z,23.40
2018-08-13T20:05:28.810Z,23.40
2018-08-13T20:07:57.377Z,23.40
2018-08-13T20:10:25.976Z,23.40
2018-08-13T20:12:54.602Z,23.40
2018-08-13T20:15:23.108Z,23.40
2018-08-13T20:17:51.729Z,23.30
2018-08-13T20:20:21.184Z,23.30
2018-08-13T20:22:50.500Z,23.20
2018-08-13T20:25:19.923Z,23.30
2018-08-13T20:27:49.181Z,23.30
2018-08-13T20:30:19.307Z,23.30
2018-08-13T20:32:49.300Z,23.30
2018-08-13T20:35:18.384Z,23.30
2018-08-13T20:37:46.788Z,23.30
2018-08-13T20:40:17.096Z,23.30
2018-08-13T20:42:46.651Z,23.30
2018-08-13T20:45:16.894Z,23.30
2018-08-13T20:47:46.014Z,23.40
2018-08-13T20:50:17.694Z,23.40
2018-08-13T20:52:46.929Z,23.40
2018-08-13T20:55:17.756Z,23.40
2018-08-13T20:57:47.542Z,23.40
2018-08-13T21:00:17.740Z,23.40
2018-08-13T21:02:47.100Z,23.40
2018-08-13T21:05:16.212Z,23.40
2018-08-13T21:07:45.933Z,23.40
2018-08-13T21:10:16.312Z,23.40
2018-08-13T21:12:44.842Z,23.40
2018-08-13T21:15:14.464Z,23.40
2018-08-13T21:17:43.042Z,23.50
2018-08-13T21:20:17.312Z,23.50
2018-08-13T21:22:45.847Z,23.40
2018-08-13T21:25:14.418Z,23.40
2018-08-13T21:27:43.502Z,23.40
2018-08-13T21:30:12.278Z,23.40
2018-08-13T21:32:41.425Z,23.40
2018-08-13T21:35:10.270Z,23.50
2018-08-13T21:37:38.787Z,23.50
2018-08-13T21:40:08.715Z,23.50
2018-08-13T21:42:37.147Z,23.50
2018-08-13T21:45:06.110Z,23.50
2018-08-13T21:47:34.438Z,23.50
2018-08-13T21:50:02.930Z,23.40
2018-08-13T21:52:31.280Z,23.40
2018-08-13T21:54:59.670Z,23.40
2018-08-13T21:57:28.115Z,23.40
2018-08-13T21:59:56.791Z,23.40
2018-08-13T22:02:25.132Z,23.40
2018-08-13T22:04:53.496Z,23.40
2018-08-13T22:07:21.800Z,23.40
2018-08-13T22:09:50.176Z,23.40
2018-08-13T22:12:19.647Z,23.40
2018-08-13T22:14:48.609Z,23.40
2018-08-13T22:17:17.193Z,23.50
2018-08-13T22:19:45.775Z,23.50
2018-08-13T22:22:14.101Z,23.40
2018-08-13T22:24:53.756Z,23.50
2018-08-13T22:27:22.294Z,23.50
2018-08-13T22:29:50.671Z,23.50
2018-08-13T22:32:19.097Z,23.50
2018-08-13T22:34:47.436Z,23.50
2018-08-13T22:37:15.852Z,23.50
2018-08-13T22:39:44.243Z,23.50
2018-08-13T22:42:12.662Z,23.50
2018-08-13T22:44:41.067Z,23.50
2018-08-13T22:47:09.381Z,23.50
2018-08-13T22:49:37.714Z,23.50
2018-08-13T22:52:06.249Z,23.50
2018-08-13T22:54:34.792Z,23.50
2018-08-13T22:57:03.227Z,23.50
2018-08-13T22:59:31.647Z,23.50
2018-08-13T23:01:59.955Z,23.50
2018-08-13T23:04:28.331Z,23.40
2018-08-13T23:06:56.727Z,23.40
2018-08-13T23:09:25.145Z,23.40
2018-08-13T23:11:53.476Z,23.40
2018-08-13T23:14:21.841Z,23.40
2018-08-13T23:16:50.282Z,23.40
2018-08-13T23:19:18.708Z,23.40
2018-08-13T23:21:47.168Z,23.40
2018-08-13T23:24:16.489Z,23.50
2018-08-13T23:26:44.804Z,23.40
2018-08-13T23:29:13.114Z,23.50
2018-08-13T23:31:41.580Z,23.50
2018-08-13T23:34:09.902Z,23.50
2018-08-13T23:36:38.383Z,23.50
2018-08-13T23:39:10.823Z,23.50
2018-08-13T23:41:39.121Z,23.50
2018-08-13T23:44:07.832Z,23.40
2018-08-13T23:46:36.144Z,23.40
2018-08-13T23:49:04.494Z,23.40
2018-08-13T23:51:32.888Z,23.40
2018-08-13T23:54:01.424Z,23.50
2018-08-13T23:56:29.805Z,23.50
2018-08-13T23:58:58.171Z,23.50
